Terminal Aerodrome Forecast
Issued by NWS Sterling, VA

Home | Current Version | Previous Version | Text Only | Print | Product List | Glossary On
Versions: 1 2 3 4 5 6 7 8 9 10 11 12 13 14 15 16 17
000
FTUS41 KLWX 252300
TAFCHO
TAF
KCHO 252331Z 2600/2624 00000KT P6SM BKN250
     FM260300 04006KT P6SM OVC250
     FM260500 02005KT P6SM -RA OVC090
     FM261200 02007KT 2SM -RASN OVC008
     FM261400 01007KT 1SM -RASN OVC003
     FM261500 01007KT 1/2SM SN OVC003
     FM261800 34007KT 1SM -RASN OVC003
     FM262100 33006KT P6SM OVC008=

USA.gov is the U.S. government's official web portal to all federal, state and local government web resources and services.